Ironwood, MI

9:45 AM CDT on September 25, 2017 (GMT -0500)
Gogebic-Iron County

Weather History for KIWD - May, 2014

Change the Weather History Date:

Sunday, May 4, 2014

  Actual Average Record
Temperature  
Mean Temperature 42 °F -  
Max Temperature 50 °F 59 °F 80 °F (1998)
Min Temperature 33 °F 36 °F 26 °F (2011)
Degree Days  
Heating Degree Days 24    
Moisture  
Dew Point 27 °F    
Average Humidity 60    
Maximum Humidity 75    
Minimum Humidity 34    
Precipitation  
Precipitation 0.01 in - - ()
Sea Level Pressure  
Sea Level Pressure 29.99 in    
Wind  
Wind Speed 8 mph (NW)    
Max Wind Speed 14 mph    
Max Gust Speed 21 mph    
Visibility 10 miles    
Events      
Averages and records for this station are not official NWS values.
T = Trace of Precipitation, MM = Missing Value Source: NWS Daily Summary

Daily Weather History Graph

Daily Weather History Graph

Search for Another Location

Airport or City:

Trip Planner

Search our weather history database for the weather conditions in past years. The results will help you decide how hot, cold, wet, or windy it might be!

Date:

Astronomy

May. 04, 2014 Rise Set
Actual Time 5:41 AM CDT 8:13 PM CDT
Civil Twilight 5:07 AM CDT 8:47 PM CDT
Nautical Twilight 4:25 AM CDT 9:30 PM CDT
Astronomical Twilight 3:36 AM CDT 10:20 PM CDT
Moon 10:04 AM CDT (5/4) 12:20 AM CDT (5/4)
Length of Visible Light 15h 40m
Length of Day
14h 32m
Waxing Crescent, 28% of the Moon is Illuminated
May 4
Waxing Crescent
May 6
First Quarter
May 14
Full
May 21
Last Quarter
May 28
New

Hourly Weather History & Observations

Time (CDT) Temp. Windchill Dew Point Humidity Pressure Visibility Wind Dir Wind Speed Gust Speed Precip Events Conditions
12:15 AM 39.2 °F 33.6 °F 28.4 °F 65% 29.84 in 10.0 mi WNW 8.1 mph - N/A   Overcast
12:35 AM 39.2 °F 32.5 °F 26.6 °F 61% 29.85 in 10.0 mi NW 10.4 mph 16.1 mph N/A   Overcast
12:55 AM 39.2 °F 33.0 °F 26.6 °F 61% 29.85 in 10.0 mi NW 9.2 mph 17.3 mph N/A   Mostly Cloudy
1:15 AM 37.4 °F 31.4 °F 26.6 °F 65% 29.85 in 10.0 mi WNW 8.1 mph - N/A   Overcast
1:35 AM 37.4 °F 30.3 °F 26.6 °F 65% 29.86 in 10.0 mi NW 10.4 mph - N/A   Mostly Cloudy
1:55 AM 37.4 °F 29.8 °F 26.6 °F 65% 29.86 in 10.0 mi NW 11.5 mph 19.6 mph N/A   Overcast
2:15 AM 37.4 °F 30.3 °F 26.6 °F 65% 29.86 in 10.0 mi WNW 10.4 mph 16.1 mph N/A   Overcast
2:35 AM 37.4 °F 29.8 °F 26.6 °F 65% 29.87 in 10.0 mi WNW 11.5 mph 16.1 mph N/A   Overcast
2:55 AM 37.4 °F 30.3 °F 26.6 °F 65% 29.87 in 10.0 mi WNW 10.4 mph - N/A   Overcast
3:15 AM 35.6 °F 28.6 °F 26.6 °F 70% 29.88 in 10.0 mi WNW 9.2 mph - N/A   Mostly Cloudy
3:35 AM 35.6 °F 28.0 °F 26.6 °F 70% 29.89 in 10.0 mi West 10.4 mph - N/A   Scattered Clouds
3:55 AM 35.6 °F 28.0 °F 26.6 °F 70% 29.90 in 10.0 mi WNW 10.4 mph - N/A   Scattered Clouds
4:15 AM 35.6 °F 26.6 °F 26.6 °F 70% 29.91 in 10.0 mi West 13.8 mph 19.6 mph N/A   Mostly Cloudy
4:35 AM 35.6 °F 27.5 °F 26.6 °F 70% 29.92 in 10.0 mi WNW 11.5 mph 17.3 mph N/A   Mostly Cloudy
4:55 AM 35.6 °F 26.6 °F 26.6 °F 70% 29.93 in 10.0 mi West 13.8 mph 18.4 mph 0.01 in   Scattered Clouds
5:15 AM 33.8 °F 26.4 °F 24.8 °F 70% 29.94 in 10.0 mi West 9.2 mph - N/A   Clear
5:35 AM 33.8 °F 27.0 °F 26.6 °F 75% 29.95 in 10.0 mi West 8.1 mph - N/A   Clear
5:55 AM 33.8 °F 27.7 °F 26.6 °F 75% 29.95 in 10.0 mi West 6.9 mph - N/A   Clear
6:15 AM 33.8 °F 29.6 °F 26.6 °F 75% 29.95 in 10.0 mi WSW 4.6 mph - N/A   Clear
6:35 AM 33.8 °F 27.7 °F 26.6 °F 75% 29.96 in 10.0 mi WSW 6.9 mph - N/A   Scattered Clouds
6:55 AM 33.8 °F 27.7 °F 26.6 °F 75% 29.96 in 10.0 mi West 6.9 mph - N/A   Partly Cloudy
7:15 AM 35.6 °F 28.6 °F 26.6 °F 70% 29.97 in 10.0 mi WNW 9.2 mph - N/A   Clear
7:35 AM 35.6 °F 27.1 °F 28.4 °F 75% 29.97 in 10.0 mi WNW 12.7 mph - N/A   Clear
7:55 AM 35.6 °F 27.1 °F 28.4 °F 75% 29.98 in 10.0 mi NW 12.7 mph - N/A   Clear
8:15 AM 35.6 °F 26.6 °F 28.4 °F 75% 30.00 in 10.0 mi NW 13.8 mph - N/A   Scattered Clouds
8:35 AM 35.6 °F 28.0 °F 26.6 °F 70% 30.00 in 10.0 mi NNW 10.4 mph 20.7 mph N/A   Mostly Cloudy
8:55 AM 37.4 °F 29.8 °F 28.4 °F 70% 30.00 in 10.0 mi NNW 11.5 mph 19.6 mph N/A   Mostly Cloudy
9:15 AM 37.4 °F 29.8 °F 28.4 °F 70% 30.01 in 10.0 mi NW 11.5 mph 17.3 mph N/A   Overcast
9:35 AM 37.4 °F 30.8 °F 28.4 °F 70% 30.02 in 10.0 mi NW 9.2 mph - N/A   Overcast
9:55 AM 37.4 °F 32.1 °F 28.4 °F 70% 30.03 in 10.0 mi North 6.9 mph - N/A   Overcast
10:15 AM 37.4 °F 32.1 °F 28.4 °F 70% 30.03 in 10.0 mi NNW 6.9 mph - N/A   Mostly Cloudy
10:35 AM 39.2 °F 32.5 °F 28.4 °F 65% 30.04 in 10.0 mi WNW 10.4 mph - N/A   Overcast
10:55 AM 39.2 °F 35.0 °F 28.4 °F 65% 30.05 in 10.0 mi NNW 5.8 mph - N/A   Overcast
11:15 AM 41.0 °F 35.2 °F 28.4 °F 61% 30.05 in 10.0 mi WNW 9.2 mph - N/A   Scattered Clouds
11:35 AM 42.8 °F 38.0 °F 30.2 °F 61% 30.05 in 10.0 mi WNW 8.1 mph - N/A   Mostly Cloudy
11:55 AM 42.8 °F 38.6 °F 30.2 °F 61% 30.05 in 10.0 mi North 6.9 mph - N/A   Mostly Cloudy
12:15 PM 42.8 °F 38.0 °F 28.4 °F 57% 30.05 in 10.0 mi North 8.1 mph - N/A   Mostly Cloudy
12:35 PM 42.8 °F 40.1 °F 28.4 °F 57% 30.05 in 10.0 mi North 4.6 mph - N/A   Scattered Clouds
12:55 PM 44.6 °F - 30.2 °F 57% 30.04 in 10.0 mi Calm Calm - N/A   Partly Cloudy
1:15 PM 44.6 °F 43.1 °F 26.6 °F 49% 30.04 in 10.0 mi NNE 3.5 mph - N/A   Mostly Cloudy
1:35 PM 44.6 °F 41.4 °F 28.4 °F 53% 30.03 in 10.0 mi NE 5.8 mph - N/A   Mostly Cloudy
1:55 PM 46.4 °F - 26.6 °F 46% 30.03 in 10.0 mi Calm Calm - N/A   Partly Cloudy
2:15 PM 46.4 °F 45.2 °F 26.6 °F 46% 30.04 in 10.0 mi South 3.5 mph - N/A   Clear
2:35 PM 48.2 °F - 28.4 °F 46% 30.03 in 10.0 mi NE 3.5 mph - N/A   Clear
2:55 PM 46.4 °F 42.4 °F 26.6 °F 46% 30.03 in 10.0 mi NNW 8.1 mph - N/A   Clear
3:15 PM 48.2 °F - 28.4 °F 46% 30.03 in 10.0 mi WNW 4.6 mph - N/A   Clear
3:35 PM 48.2 °F - 28.4 °F 46% 30.03 in 10.0 mi North 8.1 mph - N/A   Clear
3:55 PM 48.2 °F - 28.4 °F 46% 30.03 in 10.0 mi NNW 8.1 mph - N/A   Clear
4:15 PM 48.2 °F - 26.6 °F 43% 30.03 in 10.0 mi NE 5.8 mph - N/A   Clear
4:35 PM 48.2 °F - 26.6 °F 43% 30.03 in 10.0 mi NW 6.9 mph - N/A   Clear
4:55 PM 48.2 °F - 26.6 °F 43% 30.03 in 10.0 mi NE 4.6 mph - N/A   Clear
5:15 PM 48.2 °F - 21.2 °F 34% 30.03 in 10.0 mi WNW 4.6 mph - N/A   Clear
5:35 PM 48.2 °F - 21.2 °F 34% 30.02 in 10.0 mi Calm Calm - N/A   Clear
5:55 PM 50.0 °F - 24.8 °F 37% 30.02 in 10.0 mi NNW 6.9 mph - N/A   Clear
6:15 PM 48.2 °F - 24.8 °F 40% 30.02 in 10.0 mi NW 5.8 mph - N/A   Clear
6:35 PM 48.2 °F - 26.6 °F 43% 30.02 in 10.0 mi NE 5.8 mph - N/A   Clear
6:55 PM 46.4 °F 42.4 °F 21.2 °F 37% 30.02 in 10.0 mi North 8.1 mph - N/A   Clear
7:15 PM 46.4 °F 45.2 °F 19.4 °F 34% 30.02 in 10.0 mi North 3.5 mph - N/A   Clear
7:35 PM 46.4 °F - 19.4 °F 34% 30.02 in 10.0 mi Calm Calm - N/A   Clear
7:55 PM 46.4 °F 45.2 °F 19.4 °F 34% 30.02 in 10.0 mi ENE 3.5 mph - N/A   Clear
8:15 PM 44.6 °F - 21.2 °F 39% 30.02 in 10.0 mi Calm Calm - N/A   Clear
8:35 PM 41.0 °F - 26.6 °F 57% 30.03 in 10.0 mi Calm Calm - N/A   Clear
8:55 PM 39.2 °F - 24.8 °F 56% 30.03 in 10.0 mi Calm Calm - N/A   Clear
9:15 PM 41.0 °F - 30.2 °F 65% 30.04 in 10.0 mi Calm Calm - N/A   Clear
9:35 PM 37.4 °F - 28.4 °F 70% 30.04 in 10.0 mi Calm Calm - N/A   Clear
9:55 PM 39.2 °F - 28.4 °F 65% 30.03 in 10.0 mi Calm Calm - N/A   Clear
10:15 PM 37.4 °F 34.9 °F 30.2 °F 75% 30.03 in 10.0 mi East 3.5 mph - N/A   Partly Cloudy
10:35 PM 37.4 °F - 28.4 °F 70% 30.04 in 10.0 mi Calm Calm - N/A   Mostly Cloudy
10:55 PM 37.4 °F - 28.4 °F 70% 30.03 in 10.0 mi Calm Calm - N/A   Mostly Cloudy
11:15 PM 37.4 °F - 30.2 °F 75% 30.03 in 10.0 mi Calm Calm - N/A   Partly Cloudy
11:35 PM 39.2 °F - 28.4 °F 65% 30.03 in 10.0 mi Calm Calm - N/A   Clear
11:55 PM 39.2 °F - 28.4 °F 65% 30.04 in 10.0 mi Calm Calm - N/A   Clear